createdAt,value
2023-05-18T00:02:10.493Z,99857.00
2023-05-18T00:04:37.509Z,99854.66
2023-05-18T00:07:05.096Z,99853.31
2023-05-18T00:09:34.618Z,99848.19
2023-05-18T00:12:02.102Z,99846.72
2023-05-18T00:14:28.998Z,99854.91
2023-05-18T00:16:55.771Z,99845.47
2023-05-18T00:19:24.244Z,99863.41
2023-05-18T00:21:52.581Z,99857.19
2023-05-18T00:24:19.771Z,99842.53
2023-05-18T00:26:48.154Z,99835.50
2023-05-18T00:29:15.503Z,99855.31
2023-05-18T00:31:42.681Z,99841.44
2023-05-18T00:34:10.061Z,99843.38
2023-05-18T00:36:37.304Z,99842.03
2023-05-18T00:39:05.933Z,99835.84
2023-05-18T00:41:32.985Z,99845.34
2023-05-18T00:43:59.996Z,99842.88
2023-05-18T00:46:28.235Z,99843.88
2023-05-18T00:48:57.222Z,99845.00
2023-05-18T00:51:24.704Z,99841.81
2023-05-18T00:53:53.859Z,99843.69
2023-05-18T00:56:23.642Z,99840.00
2023-05-18T00:58:52.289Z,99840.41
2023-05-18T01:03:56.613Z,99845.59
2023-05-18T01:06:26.725Z,99841.88
2023-05-18T01:08:54.410Z,99846.63
2023-05-18T01:11:58.000Z,99845.91
2023-05-18T01:14:36.598Z,99848.13
2023-05-18T01:17:12.992Z,99845.31
2023-05-18T01:19:51.767Z,99841.31
2023-05-18T01:22:32.886Z,99842.56
2023-05-18T01:25:29.776Z,99846.66
2023-05-18T01:28:00.177Z,99840.41
2023-05-18T01:30:27.197Z,99835.34
2023-05-18T01:32:54.340Z,99844.25
2023-05-18T01:35:21.147Z,99849.50
2023-05-18T01:37:47.742Z,99844.03
2023-05-18T01:40:14.485Z,99839.97
2023-05-18T01:42:46.809Z,99853.84
2023-05-18T01:45:26.472Z,99841.09
2023-05-18T01:47:57.404Z,99850.91
2023-05-18T01:50:29.549Z,99852.09
2023-05-18T01:53:13.669Z,99845.41
2023-05-18T01:55:41.316Z,99856.50
2023-05-18T01:58:09.126Z,99846.63
2023-05-18T02:00:36.721Z,99840.50
2023-05-18T02:03:03.857Z,99853.38
2023-05-18T02:05:30.843Z,99850.97
2023-05-18T02:07:58.179Z,99854.81
2023-05-18T02:10:24.973Z,99856.78
2023-05-18T02:12:52.984Z,99855.00
2023-05-18T02:15:19.632Z,99851.38
2023-05-18T02:17:46.252Z,99853.34
2023-05-18T02:20:13.602Z,99852.03
2023-05-18T02:22:40.160Z,99848.31
2023-05-18T02:25:07.330Z,99861.59
2023-05-18T02:27:36.143Z,99861.91
2023-05-18T02:30:05.283Z,99851.53
2023-05-18T02:32:32.795Z,99857.03
2023-05-18T02:35:03.478Z,99850.09
2023-05-18T02:37:30.040Z,99849.69
2023-05-18T02:39:56.627Z,99858.31
2023-05-18T02:42:23.179Z,99852.59
2023-05-18T02:44:49.747Z,99849.50
2023-05-18T02:47:16.486Z,99854.06
2023-05-18T02:49:43.072Z,99859.13
2023-05-18T02:52:09.662Z,99859.38
2023-05-18T02:54:36.392Z,99857.44
2023-05-18T02:57:02.942Z,99854.78
2023-05-18T02:59:29.534Z,99857.81
2023-05-18T03:01:56.264Z,99862.84
2023-05-18T03:04:25.882Z,99868.75
2023-05-18T03:06:53.427Z,99869.25
2023-05-18T03:09:20.079Z,99870.47
2023-05-18T03:11:46.610Z,99872.03
2023-05-18T03:14:13.250Z,99876.19
2023-05-18T03:16:40.597Z,99872.03
2023-05-18T03:19:07.301Z,99872.41
2023-05-18T03:21:36.074Z,99875.25
2023-05-18T03:24:03.405Z,99880.41
2023-05-18T03:26:32.660Z,99888.31
2023-05-18T03:28:59.630Z,99891.50
2023-05-18T03:31:26.381Z,99889.81
2023-05-18T03:33:53.014Z,99888.31
2023-05-18T03:36:22.507Z,99889.69
2023-05-18T03:38:49.250Z,99892.19
2023-05-18T03:41:15.999Z,99896.09
2023-05-18T03:43:42.573Z,99895.03
2023-05-18T03:46:09.211Z,99895.38
2023-05-18T03:48:36.049Z,99897.25
2023-05-18T03:51:02.691Z,99890.81
2023-05-18T03:53:29.592Z,99898.91
2023-05-18T03:55:56.962Z,99901.63
2023-05-18T03:58:23.567Z,99903.91
2023-05-18T04:00:50.312Z,99907.06
2023-05-18T04:03:17.066Z,99905.25
2023-05-18T04:05:44.438Z,99913.53
2023-05-18T04:08:14.564Z,99909.78
2023-05-18T04:10:43.086Z,99909.00
2023-05-18T04:13:09.987Z,99916.34
2023-05-18T04:15:36.769Z,99919.88
2023-05-18T04:18:03.565Z,99913.19
2023-05-18T04:20:30.231Z,99913.22
2023-05-18T04:23:00.213Z,99919.41
2023-05-18T04:25:29.754Z,99916.81
2023-05-18T04:27:56.912Z,99915.53
2023-05-18T04:30:24.030Z,99923.19
2023-05-18T04:32:51.102Z,99913.56
2023-05-18T04:35:18.725Z,99924.03
2023-05-18T04:37:45.478Z,99923.66
2023-05-18T04:40:17.155Z,99923.88
2023-05-18T04:42:50.696Z,99929.75
2023-05-18T04:45:19.326Z,99919.59
2023-05-18T04:47:47.280Z,99924.88
2023-05-18T04:50:17.584Z,99925.91
2023-05-18T04:52:48.645Z,99927.81
2023-05-18T04:55:25.894Z,99930.31
2023-05-18T04:57:56.895Z,99935.13
2023-05-18T05:00:26.281Z,99930.56
2023-05-18T05:02:53.873Z,99937.31
2023-05-18T05:05:21.444Z,99937.06
2023-05-18T05:07:50.948Z,99931.66
2023-05-18T05:10:18.664Z,99929.41
2023-05-18T05:12:47.423Z,99934.94
2023-05-18T05:15:16.322Z,99941.72
2023-05-18T05:17:42.932Z,99931.72
2023-05-18T05:20:09.830Z,99940.38
2023-05-18T05:22:36.631Z,99932.47
2023-05-18T05:25:05.880Z,99939.06
2023-05-18T05:27:33.016Z,99939.69
2023-05-18T05:29:59.657Z,99940.66
2023-05-18T05:32:26.259Z,99933.34
2023-05-18T05:34:52.939Z,99940.09
2023-05-18T05:37:19.584Z,99954.44
2023-05-18T05:39:46.174Z,99955.31
2023-05-18T05:42:13.795Z,99954.78
2023-05-18T05:44:41.098Z,99963.44
2023-05-18T05:47:08.613Z,99963.47
2023-05-18T05:49:35.309Z,99966.00
2023-05-18T05:52:02.364Z,99972.50
2023-05-18T05:54:29.014Z,99973.81
2023-05-18T05:56:55.703Z,99977.75
2023-05-18T05:59:22.591Z,99971.69
2023-05-18T06:01:49.406Z,99974.06
2023-05-18T06:04:16.301Z,99970.03
2023-05-18T06:06:44.019Z,99975.75
2023-05-18T06:09:11.064Z,99975.34
2023-05-18T06:11:38.071Z,99983.44
2023-05-18T06:14:04.812Z,99980.44
2023-05-18T06:16:31.617Z,99972.38
2023-05-18T06:18:58.468Z,99974.69
2023-05-18T06:21:25.339Z,99975.38
2023-05-18T06:23:51.921Z,99986.53
2023-05-18T06:26:18.450Z,99989.81
2023-05-18T06:28:45.189Z,99992.16
2023-05-18T06:31:12.961Z,99988.53
2023-05-18T06:33:40.020Z,99991.63
2023-05-18T06:36:06.721Z,99996.31
2023-05-18T06:38:33.469Z,100007.03
2023-05-18T06:41:00.073Z,99987.25
2023-05-18T06:43:28.482Z,99999.09
2023-05-18T06:45:56.390Z,100006.34
2023-05-18T06:48:26.067Z,100006.88
2023-05-18T06:50:52.857Z,99997.66
2023-05-18T06:53:19.487Z,100003.44
2023-05-18T06:55:46.134Z,100008.25
2023-05-18T06:58:13.176Z,100015.13
2023-05-18T07:00:39.906Z,100030.47
2023-05-18T07:03:06.565Z,100020.94
2023-05-18T07:05:33.934Z,100033.41
2023-05-18T07:08:01.933Z,100018.75
2023-05-18T07:10:29.029Z,100020.41
2023-05-18T07:12:56.187Z,100022.81
2023-05-18T07:15:25.883Z,100018.19
2023-05-18T07:17:52.863Z,100025.44
2023-05-18T07:20:19.735Z,100018.56
2023-05-18T07:22:46.359Z,100014.25
2023-05-18T07:25:13.500Z,100024.13
2023-05-18T07:27:40.182Z,100021.88
2023-05-18T07:30:08.113Z,100018.72
2023-05-18T07:32:34.765Z,100030.59
2023-05-18T07:35:01.716Z,100028.63
2023-05-18T07:37:28.271Z,100026.91
2023-05-18T07:39:54.844Z,100030.81
2023-05-18T07:42:21.580Z,100022.59
2023-05-18T07:44:48.163Z,100033.19
2023-05-18T07:47:14.759Z,100032.13
2023-05-18T07:49:43.114Z,100029.69
2023-05-18T07:52:09.752Z,100034.34
2023-05-18T07:54:36.314Z,100035.00
2023-05-18T07:57:04.297Z,100031.56
2023-05-18T07:59:31.020Z,100037.81
2023-05-18T08:01:59.161Z,100043.06
2023-05-18T08:04:26.316Z,100042.50
2023-05-18T08:06:54.931Z,100047.81
2023-05-18T08:09:24.532Z,100050.34
2023-05-18T08:11:51.700Z,100041.78
2023-05-18T08:14:18.318Z,100043.81
2023-05-18T08:16:45.354Z,100033.91
2023-05-18T08:19:12.081Z,100046.47
2023-05-18T08:21:38.665Z,100040.66
2023-05-18T08:24:06.918Z,100046.31
2023-05-18T08:26:33.565Z,100049.25
2023-05-18T08:29:00.162Z,100047.50
2023-05-18T08:31:26.881Z,100046.66
2023-05-18T08:33:53.641Z,100046.66
2023-05-18T08:36:20.280Z,100050.13
2023-05-18T08:38:46.809Z,100041.44
2023-05-18T08:41:38.891Z,100048.59
2023-05-18T08:44:21.939Z,100046.53
2023-05-18T08:46:51.423Z,100043.91
2023-05-18T08:49:19.495Z,100047.88
2023-05-18T08:51:48.884Z,100048.50
2023-05-18T08:54:21.269Z,100064.00
2023-05-18T08:56:48.932Z,100058.22
2023-05-18T08:59:18.948Z,100065.06
2023-05-18T09:01:46.784Z,100060.19
2023-05-18T09:04:13.853Z,100068.75
2023-05-18T09:06:41.243Z,100072.44
2023-05-18T09:09:07.814Z,100063.78
2023-05-18T09:11:35.766Z,100063.25
2023-05-18T09:14:02.756Z,100067.94
2023-05-18T09:16:30.519Z,100065.91
2023-05-18T09:18:57.327Z,100068.16
2023-05-18T09:21:23.882Z,100068.13
2023-05-18T09:23:50.869Z,100075.97
2023-05-18T09:26:19.385Z,100070.09
2023-05-18T09:28:47.711Z,100072.16
2023-05-18T09:31:19.062Z,100065.53
2023-05-18T09:33:47.070Z,100063.31
2023-05-18T09:36:15.570Z,100073.72
2023-05-18T09:38:46.121Z,100072.28
2023-05-18T09:41:15.483Z,100074.66
2023-05-18T09:43:43.840Z,100065.41
2023-05-18T09:46:11.892Z,100067.16
2023-05-18T09:48:44.015Z,100066.16
2023-05-18T09:51:16.417Z,100062.28
2023-05-18T09:53:48.912Z,100053.41
2023-05-18T09:56:18.031Z,100064.16
2023-05-18T09:58:45.899Z,100058.81
2023-05-18T10:01:12.564Z,100053.56
2023-05-18T10:03:39.416Z,100059.88
2023-05-18T10:06:08.874Z,100044.25
2023-05-18T10:08:36.863Z,100040.34
2023-05-18T10:11:04.142Z,100050.75
2023-05-18T10:13:32.100Z,100047.94
2023-05-18T10:16:03.994Z,100045.75
2023-05-18T10:18:34.313Z,100048.84
2023-05-18T10:21:03.598Z,100036.81
2023-05-18T10:23:34.985Z,100044.09
2023-05-18T10:26:05.150Z,100043.56
2023-05-18T10:28:43.308Z,100044.03
2023-05-18T10:31:10.164Z,100038.66
2023-05-18T10:33:38.113Z,100038.00
2023-05-18T10:36:07.283Z,100031.56
2023-05-18T10:38:38.831Z,100028.91
2023-05-18T10:41:06.204Z,100039.31
2023-05-18T10:43:33.664Z,100041.75
2023-05-18T10:46:01.429Z,100031.66
2023-05-18T10:48:29.747Z,100046.78
2023-05-18T10:50:57.816Z,100035.72
2023-05-18T10:53:27.136Z,100031.16
2023-05-18T10:55:54.487Z,100027.78
2023-05-18T10:58:26.681Z,100024.75
2023-05-18T11:00:59.532Z,100034.22
2023-05-18T11:03:27.286Z,100026.31
2023-05-18T11:06:10.299Z,100021.31
2023-05-18T11:09:03.570Z,100019.25
2023-05-18T11:11:30.358Z,100019.94
2023-05-18T11:14:03.497Z,100008.94
2023-05-18T11:16:35.537Z,100007.78
2023-05-18T11:19:11.723Z,100012.50
2023-05-18T11:21:41.703Z,100008.91
2023-05-18T11:24:30.279Z,100017.69
2023-05-18T11:27:03.793Z,100012.50
2023-05-18T11:29:32.057Z,100009.88
2023-05-18T11:31:59.019Z,100008.75
2023-05-18T11:34:52.240Z,100013.25
2023-05-18T11:37:38.285Z,100008.38
2023-05-18T11:40:54.470Z,100006.69
2023-05-18T11:43:24.880Z,100006.28
2023-05-18T11:45:53.382Z,100001.81
2023-05-18T11:48:27.659Z,100007.09
2023-05-18T11:50:55.302Z,99996.41
2023-05-18T11:53:26.836Z,100011.13
2023-05-18T11:55:54.841Z,100008.63
2023-05-18T11:58:24.592Z,99998.19
2023-05-18T12:00:51.759Z,99997.09
2023-05-18T12:03:24.548Z,99997.66
2023-05-18T12:05:51.737Z,99993.59
2023-05-18T12:08:21.907Z,99995.50
2023-05-18T12:10:51.894Z,100000.72
2023-05-18T12:13:18.606Z,99988.25
2023-05-18T12:15:45.749Z,99997.16
2023-05-18T12:18:12.635Z,100009.44
2023-05-18T12:20:41.150Z,99988.78
2023-05-18T12:23:08.109Z,100001.72
2023-05-18T12:25:35.831Z,99991.94
2023-05-18T12:28:02.458Z,99996.97
2023-05-18T12:30:35.251Z,99988.16
2023-05-18T12:33:03.260Z,99991.59
2023-05-18T12:35:31.148Z,99983.31
2023-05-18T12:38:02.776Z,99985.63
2023-05-18T12:40:44.274Z,99981.84
2023-05-18T12:43:11.205Z,99990.97
2023-05-18T12:45:37.968Z,99988.13
2023-05-18T12:48:09.424Z,99986.50
2023-05-18T12:50:37.371Z,99989.94
2023-05-18T12:53:04.500Z,99984.50
2023-05-18T12:55:32.308Z,99974.63
2023-05-18T12:58:07.345Z,99980.34
2023-05-18T13:00:34.588Z,99990.25
2023-05-18T13:03:13.832Z,99977.34
2023-05-18T13:05:44.825Z,99995.84
2023-05-18T13:08:22.317Z,99987.66
2023-05-18T13:10:58.090Z,99986.19
2023-05-18T13:13:32.525Z,99972.41
2023-05-18T13:16:02.119Z,99981.81
2023-05-18T13:18:28.783Z,99976.22
2023-05-18T13:20:57.134Z,99973.72
2023-05-18T13:23:27.267Z,99991.34
2023-05-18T13:25:56.044Z,99980.63
2023-05-18T13:28:24.121Z,99978.78
2023-05-18T13:30:50.848Z,99968.38
2023-05-18T13:33:19.261Z,99974.50
2023-05-18T13:35:46.788Z,99981.22
2023-05-18T13:38:14.595Z,99960.56
2023-05-18T13:40:41.919Z,99966.94
2023-05-18T13:43:10.890Z,99957.06
2023-05-18T13:45:39.445Z,99964.88
2023-05-18T13:48:09.513Z,99977.19
2023-05-18T13:50:37.246Z,99963.44
2023-05-18T13:53:04.026Z,99970.25
2023-05-18T13:55:30.918Z,99971.44
2023-05-18T13:57:58.154Z,99970.25
2023-05-18T14:00:25.152Z,99967.56
2023-05-18T14:02:53.475Z,99975.56
2023-05-18T14:05:20.393Z,99963.38
2023-05-18T14:07:47.010Z,99964.38
2023-05-18T14:10:13.748Z,99957.41
2023-05-18T14:12:42.614Z,99959.41
2023-05-18T14:15:10.144Z,99952.97
2023-05-18T14:17:36.861Z,99955.97
2023-05-18T14:20:05.491Z,99955.38
2023-05-18T14:22:32.628Z,99954.16
2023-05-18T14:24:59.217Z,99960.97
2023-05-18T14:27:25.862Z,99957.94
2023-05-18T14:29:52.597Z,99948.66
2023-05-18T14:32:22.816Z,99950.88
2023-05-18T14:34:55.419Z,99962.19
2023-05-18T14:37:22.261Z,99948.19
2023-05-18T14:39:48.859Z,99945.25
2023-05-18T14:42:15.510Z,99936.56
2023-05-18T14:44:42.258Z,99951.09
2023-05-18T14:47:10.429Z,99947.56
2023-05-18T14:49:37.712Z,99936.78
2023-05-18T14:52:04.608Z,99928.38
2023-05-18T14:54:31.352Z,99938.63
2023-05-18T14:56:58.049Z,99940.84
2023-05-18T14:59:24.602Z,99929.16
2023-05-18T15:01:52.307Z,99935.41
2023-05-18T15:04:20.166Z,99925.97
2023-05-18T15:06:47.137Z,99931.47
2023-05-18T15:09:15.081Z,99929.63
2023-05-18T15:11:41.724Z,99938.88
2023-05-18T15:14:08.276Z,99943.53
2023-05-18T15:16:36.002Z,99941.97
2023-05-18T15:19:04.394Z,99947.06
2023-05-18T15:21:31.157Z,99934.00
2023-05-18T15:23:58.170Z,99935.84
2023-05-18T15:26:24.875Z,99937.13
2023-05-18T15:28:51.542Z,99925.00
2023-05-18T15:31:18.359Z,99933.06
2023-05-18T15:33:45.047Z,99929.03
2023-05-18T15:36:12.572Z,99934.50
2023-05-18T15:38:39.277Z,99930.31
2023-05-18T15:41:06.046Z,99933.53
2023-05-18T15:43:33.719Z,99930.47
2023-05-18T15:46:00.673Z,99925.84
2023-05-18T15:48:27.340Z,99930.97
2023-05-18T15:50:54.143Z,99932.81
2023-05-18T15:53:26.603Z,99930.09
2023-05-18T15:55:58.624Z,99922.78
2023-05-18T15:58:26.628Z,99928.03
2023-05-18T16:00:53.461Z,99927.31
2023-05-18T16:03:20.333Z,99928.72
2023-05-18T16:05:47.007Z,99922.31
2023-05-18T16:08:13.596Z,99921.69
2023-05-18T16:10:40.453Z,99916.94
2023-05-18T16:13:07.097Z,99926.97
2023-05-18T16:15:34.675Z,99927.66
2023-05-18T16:18:01.890Z,99917.03
2023-05-18T16:20:28.665Z,99921.50
2023-05-18T16:22:55.831Z,99923.69
2023-05-18T16:25:22.804Z,99918.63
2023-05-18T16:27:49.613Z,99923.72
2023-05-18T16:30:16.206Z,99917.50
2023-05-18T16:32:43.981Z,99925.69
2023-05-18T16:35:11.538Z,99919.81
2023-05-18T16:37:38.612Z,99922.88
2023-05-18T16:40:05.918Z,99920.69
2023-05-18T16:42:33.076Z,99917.19
2023-05-18T16:44:59.793Z,99915.97
2023-05-18T16:47:27.700Z,99920.56
2023-05-18T16:49:54.615Z,99919.75
2023-05-18T16:52:21.620Z,99914.38
2023-05-18T16:54:48.337Z,99917.94
2023-05-18T16:57:15.242Z,99911.34
2023-05-18T16:59:42.624Z,99920.88
2023-05-18T17:02:14.108Z,99917.00
2023-05-18T17:04:49.792Z,99911.50
2023-05-18T17:07:16.912Z,99913.00
2023-05-18T17:09:43.658Z,99911.97
2023-05-18T17:12:11.160Z,99912.09
2023-05-18T17:14:38.399Z,99917.19
2023-05-18T17:17:05.962Z,99913.88
2023-05-18T17:19:34.796Z,99913.66
2023-05-18T17:22:01.670Z,99920.09
2023-05-18T17:24:28.378Z,99907.19
2023-05-18T17:26:55.022Z,99912.19
2023-05-18T17:29:21.967Z,99905.53
2023-05-18T17:31:48.664Z,99906.47
2023-05-18T17:34:15.297Z,99910.31
2023-05-18T17:36:42.654Z,99906.53
2023-05-18T17:39:09.467Z,99903.84
2023-05-18T17:41:36.406Z,99908.13
2023-05-18T17:44:03.335Z,99904.28
2023-05-18T17:46:30.708Z,99909.84
2023-05-18T17:48:57.298Z,99907.44
2023-05-18T17:51:24.740Z,99912.38
2023-05-18T17:53:51.597Z,99917.97
2023-05-18T17:56:18.300Z,99906.72
2023-05-18T17:58:44.991Z,99912.75
2023-05-18T18:01:12.238Z,99911.66
2023-05-18T18:03:39.281Z,99911.75
2023-05-18T18:06:06.841Z,99914.09
2023-05-18T18:08:33.945Z,99908.53
2023-05-18T18:11:00.670Z,99917.69
2023-05-18T18:13:27.400Z,99910.53
2023-05-18T18:15:53.936Z,99915.69
2023-05-18T18:18:21.322Z,99911.94
2023-05-18T18:20:47.962Z,99911.31
2023-05-18T18:23:15.682Z,99911.28
2023-05-18T18:25:43.524Z,99911.03
2023-05-18T18:28:14.744Z,99908.94
2023-05-18T18:30:44.235Z,99908.41
2023-05-18T18:33:11.735Z,99910.31
2023-05-18T18:35:38.424Z,99907.25
2023-05-18T18:38:05.135Z,99903.97
2023-05-18T18:40:32.078Z,99907.38
2023-05-18T18:42:58.911Z,99913.16
2023-05-18T18:45:26.961Z,99912.13
2023-05-18T18:47:53.690Z,99920.63
2023-05-18T18:50:20.504Z,99916.91
2023-05-18T18:52:47.481Z,99910.94
2023-05-18T18:55:14.078Z,99911.81
2023-05-18T18:57:40.649Z,99898.38
2023-05-18T19:00:11.105Z,99905.59
2023-05-18T19:02:38.587Z,99906.56
2023-05-18T19:05:05.967Z,99910.88
2023-05-18T19:07:33.544Z,99906.88
2023-05-18T19:10:00.263Z,99910.03
2023-05-18T19:12:27.162Z,99909.88
2023-05-18T19:14:53.781Z,99918.13
2023-05-18T19:17:20.439Z,99916.78
2023-05-18T19:19:47.017Z,99912.94
2023-05-18T19:22:14.588Z,99914.69
2023-05-18T19:24:41.460Z,99920.06
2023-05-18T19:27:08.202Z,99925.09
2023-05-18T19:29:37.437Z,99921.56
2023-05-18T19:32:04.887Z,99930.31
2023-05-18T19:34:31.548Z,99936.66
2023-05-18T19:36:58.241Z,99931.97
2023-05-18T19:39:24.842Z,99929.31
2023-05-18T19:41:51.482Z,99933.16
2023-05-18T19:44:18.111Z,99941.25
2023-05-18T19:46:45.266Z,99940.38
2023-05-18T19:49:12.099Z,99946.25
2023-05-18T19:51:38.741Z,99948.13
2023-05-18T19:54:05.405Z,99950.09
2023-05-18T19:56:32.171Z,99941.81
2023-05-18T19:58:58.834Z,99940.38
2023-05-18T20:01:25.511Z,99942.78
2023-05-18T20:03:52.386Z,99940.66
2023-05-18T20:06:19.650Z,99940.69
2023-05-18T20:08:46.199Z,99943.91
2023-05-18T20:11:12.848Z,99938.44
2023-05-18T20:13:39.532Z,99941.97
2023-05-18T20:16:06.634Z,99946.22
2023-05-18T20:18:35.011Z,99946.81
2023-05-18T20:21:02.096Z,99948.19
2023-05-18T20:23:28.885Z,99939.53
2023-05-18T20:25:56.197Z,99954.97
2023-05-18T20:28:22.988Z,99949.50
2023-05-18T20:30:50.201Z,99955.06
2023-05-18T20:33:17.731Z,99950.19
2023-05-18T20:35:45.323Z,99945.41
2023-05-18T20:38:12.661Z,99948.25
2023-05-18T20:40:39.344Z,99945.34
2023-05-18T20:43:09.904Z,99951.78
2023-05-18T20:45:36.754Z,99950.78
2023-05-18T20:48:04.644Z,99953.94
2023-05-18T20:50:31.724Z,99950.81
2023-05-18T20:52:58.456Z,99952.47
2023-05-18T20:55:25.079Z,99952.59
2023-05-18T20:57:51.884Z,99950.38
2023-05-18T21:00:18.806Z,99947.19
2023-05-18T21:02:46.734Z,99951.66
2023-05-18T21:05:14.491Z,99948.94
2023-05-18T21:07:41.054Z,99939.31
2023-05-18T21:10:08.475Z,99947.31
2023-05-18T21:12:35.163Z,99944.34
2023-05-18T21:15:01.882Z,99941.53
2023-05-18T21:17:28.522Z,99941.00
2023-05-18T21:19:55.255Z,99941.97
2023-05-18T21:22:21.801Z,99933.47
2023-05-18T21:24:48.397Z,99941.94
2023-05-18T21:27:15.069Z,99946.88
2023-05-18T21:29:41.796Z,99939.88
2023-05-18T21:32:08.909Z,99946.91
2023-05-18T21:34:36.056Z,99933.19
2023-05-18T21:37:02.836Z,99932.22
2023-05-18T21:39:29.577Z,99937.72
2023-05-18T21:41:56.205Z,99928.94
2023-05-18T21:44:22.748Z,99937.09
2023-05-18T21:46:54.928Z,99938.38
2023-05-18T21:49:21.680Z,99939.88
2023-05-18T21:51:48.263Z,99938.13
2023-05-18T21:54:14.919Z,99934.75
2023-05-18T21:56:42.157Z,99937.75
2023-05-18T21:59:08.704Z,99935.50
2023-05-18T22:01:35.468Z,99931.19
2023-05-18T22:04:02.209Z,99927.78
2023-05-18T22:06:28.859Z,99935.94
2023-05-18T22:08:55.693Z,99923.50
2023-05-18T22:11:22.739Z,99925.66
2023-05-18T22:13:49.277Z,99927.31
2023-05-18T22:16:16.075Z,99929.50
2023-05-18T22:18:42.732Z,99927.44
2023-05-18T22:21:09.375Z,99937.53
2023-05-18T22:23:36.163Z,99926.06
2023-05-18T22:26:02.764Z,99927.34
2023-05-18T22:28:29.305Z,99922.88
2023-05-18T22:30:56.071Z,99921.38
2023-05-18T22:33:23.527Z,99921.75
2023-05-18T22:35:50.154Z,99919.78
2023-05-18T22:38:17.913Z,99918.00
2023-05-18T22:40:45.473Z,99921.63
2023-05-18T22:43:12.138Z,99919.59
2023-05-18T22:45:38.928Z,99916.97
2023-05-18T22:48:05.660Z,99920.47
2023-05-18T22:50:32.473Z,99916.88
2023-05-18T22:52:59.514Z,99923.06
2023-05-18T22:55:26.073Z,99904.72
2023-05-18T22:57:52.631Z,99918.88
2023-05-18T23:00:19.366Z,99914.72
2023-05-18T23:02:45.951Z,99913.13
2023-05-18T23:05:13.767Z,99912.72
2023-05-18T23:07:41.939Z,99920.00
2023-05-18T23:10:11.288Z,99921.94
2023-05-18T23:12:38.390Z,99919.47
2023-05-18T23:15:06.034Z,99918.50
2023-05-18T23:17:33.199Z,99921.84
2023-05-18T23:20:06.906Z,99920.78
2023-05-18T23:22:37.299Z,99925.25
2023-05-18T23:25:08.476Z,99919.50
2023-05-18T23:27:35.433Z,99914.41
2023-05-18T23:30:02.087Z,99914.56
2023-05-18T23:32:29.207Z,99907.88
2023-05-18T23:34:57.763Z,99912.66
2023-05-18T23:37:24.853Z,99909.34
2023-05-18T23:39:52.261Z,99917.56
2023-05-18T23:42:20.523Z,99913.44
2023-05-18T23:44:48.399Z,99919.81
2023-05-18T23:47:16.313Z,99917.72
2023-05-18T23:49:43.970Z,99914.38
2023-05-18T23:52:11.174Z,99917.09
2023-05-18T23:54:38.090Z,99911.28
2023-05-18T23:57:05.114Z,99910.09
2023-05-18T23:59:32.348Z,99907.88
